sensor_id;sensor_type;location;lat;lon;timestamp;pressure;altitude;pressure_sealevel;temperature;humidity
18500;BME280;9379;52.134;11.576;2023-05-22T07:29:21;100875.59;;;23.69;64.01
18500;BME280;9379;52.134;11.576;2023-05-22T07:31:51;100892.13;;;23.54;64.41
18500;BME280;9379;52.134;11.576;2023-05-22T07:34:18;100868.84;;;23.84;63.68
18500;BME280;9379;52.134;11.576;2023-05-22T07:36:46;100868.13;;;24.02;62.99
18500;BME280;9379;52.134;11.576;2023-05-22T10:35:12;100740.16;;;29.69;54.08
18500;BME280;9379;52.134;11.576;2023-05-22T10:37:47;100741.19;;;29.63;53.92
18500;BME280;9379;52.134;11.576;2023-05-22T10:40:20;100733.69;;;29.53;54.40
18500;BME280;9379;52.134;11.576;2023-05-22T10:42:56;100736.56;;;29.96;56.45
18500;BME280;9379;52.134;11.576;2023-05-22T10:45:25;100726.84;;;30.10;53.11
18500;BME280;9379;52.134;11.576;2023-05-22T10:48:01;100726.72;;;29.68;54.04
18500;BME280;9379;52.134;11.576;2023-05-22T10:50:29;100729.25;;;30.75;53.27
18500;BME280;9379;52.134;11.576;2023-05-22T10:53:26;100726.81;;;29.78;53.76
18500;BME280;9379;52.134;11.576;2023-05-22T10:55:54;100722.75;;;29.85;54.56
18500;BME280;9379;52.134;11.576;2023-05-22T10:58:25;100715.78;;;29.46;53.67
18500;BME280;9379;52.134;11.576;2023-05-22T11:01:10;100722.41;;;28.84;54.83
18500;BME280;9379;52.134;11.576;2023-05-22T11:03:51;100727.72;;;28.74;55.95
18500;BME280;9379;52.134;11.576;2023-05-22T11:06:34;100721.94;;;29.09;57.04
18500;BME280;9379;52.134;11.576;2023-05-22T11:09:27;100716.06;;;29.22;54.40
18500;BME280;9379;52.134;11.576;2023-05-22T11:12:23;100719.91;;;28.83;56.60
18500;BME280;9379;52.134;11.576;2023-05-22T11:14:51;100715.44;;;28.76;54.77
18500;BME280;9379;52.134;11.576;2023-05-22T11:17:22;100713.09;;;29.29;51.97
18500;BME280;9379;52.134;11.576;2023-05-22T11:20:00;100719.25;;;29.14;50.30
18500;BME280;9379;52.134;11.576;2023-05-22T11:22:32;100710.44;;;29.34;51.54
18500;BME280;9379;52.134;11.576;2023-05-22T11:25:02;100708.56;;;29.13;50.39
18500;BME280;9379;52.134;11.576;2023-05-22T11:27:30;100698.78;;;28.95;51.44
18500;BME280;9379;52.134;11.576;2023-05-22T11:29:59;100711.34;;;28.57;52.46
18500;BME280;9379;52.134;11.576;2023-05-22T11:32:26;100703.41;;;28.94;50.89
18500;BME280;9379;52.134;11.576;2023-05-22T11:34:55;100697.06;;;28.72;51.67
18500;BME280;9379;52.134;11.576;2023-05-22T11:37:22;100684.88;;;28.41;53.46
18500;BME280;9379;52.134;11.576;2023-05-22T11:39:55;100669.00;;;28.60;51.64
18500;BME280;9379;52.134;11.576;2023-05-22T11:42:22;100697.31;;;29.09;53.57
18500;BME280;9379;52.134;11.576;2023-05-22T11:44:49;100678.38;;;28.47;53.86
18500;BME280;9379;52.134;11.576;2023-05-22T11:47:16;100686.84;;;28.84;51.63
18500;BME280;9379;52.134;11.576;2023-05-22T11:49:43;100683.06;;;28.68;52.68
18500;BME280;9379;52.134;11.576;2023-05-22T11:52:10;100694.66;;;28.75;51.10
18500;BME280;9379;52.134;11.576;2023-05-22T11:54:37;100687.91;;;28.83;51.19
18500;BME280;9379;52.134;11.576;2023-05-22T11:57:07;100674.09;;;29.17;50.35
18500;BME280;9379;52.134;11.576;2023-05-22T11:59:34;100681.47;;;29.38;48.77
18500;BME280;9379;52.134;11.576;2023-05-22T12:02:01;100661.47;;;29.97;49.15
18500;BME280;9379;52.134;11.576;2023-05-22T12:04:28;100678.75;;;29.16;51.32
18500;BME280;9379;52.134;11.576;2023-05-22T12:06:55;100668.09;;;29.42;48.93
18500;BME280;9379;52.134;11.576;2023-05-22T12:09:22;100656.63;;;29.45;49.01
18500;BME280;9379;52.134;11.576;2023-05-22T12:11:49;100677.97;;;28.77;49.69
18500;BME280;9379;52.134;11.576;2023-05-22T12:14:17;100665.69;;;28.58;50.20
18500;BME280;9379;52.134;11.576;2023-05-22T12:16:44;100664.91;;;29.77;49.28
18500;BME280;9379;52.134;11.576;2023-05-22T12:19:11;100659.13;;;30.47;48.49
18500;BME280;9379;52.134;11.576;2023-05-22T12:21:38;100664.53;;;30.80;47.32
18500;BME280;9379;52.134;11.576;2023-05-22T12:24:06;100656.66;;;31.08;46.98
18500;BME280;9379;52.134;11.576;2023-05-22T12:26:34;100656.88;;;30.39;47.78
18500;BME280;9379;52.134;11.576;2023-05-22T12:29:02;100641.50;;;30.33;48.30
18500;BME280;9379;52.134;11.576;2023-05-22T12:31:34;100648.91;;;30.01;49.44
18500;BME280;9379;52.134;11.576;2023-05-22T12:34:03;100642.53;;;29.90;48.83
18500;BME280;9379;52.134;11.576;2023-05-22T12:36:33;100639.06;;;30.00;48.52
18500;BME280;9379;52.134;11.576;2023-05-22T12:39:00;100664.69;;;30.20;48.09
18500;BME280;9379;52.134;11.576;2023-05-22T12:41:27;100641.56;;;30.06;48.52
18500;BME280;9379;52.134;11.576;2023-05-22T12:43:54;100654.91;;;29.39;50.22
18500;BME280;9379;52.134;11.576;2023-05-22T12:46:21;100640.63;;;29.96;51.75
18500;BME280;9379;52.134;11.576;2023-05-22T12:48:50;100629.13;;;29.34;50.75
18500;BME280;9379;52.134;11.576;2023-05-22T12:51:16;100625.75;;;29.27;50.53
18500;BME280;9379;52.134;11.576;2023-05-22T12:53:43;100649.28;;;29.50;50.82
18500;BME280;9379;52.134;11.576;2023-05-22T12:56:10;100647.84;;;29.70;51.14
18500;BME280;9379;52.134;11.576;2023-05-22T12:58:37;100647.00;;;29.69;52.12
18500;BME280;9379;52.134;11.576;2023-05-22T13:01:04;100640.88;;;30.26;49.48
18500;BME280;9379;52.134;11.576;2023-05-22T13:03:31;100643.44;;;30.01;51.72
18500;BME280;9379;52.134;11.576;2023-05-22T13:05:59;100625.63;;;29.66;51.11
18500;BME280;9379;52.134;11.576;2023-05-22T13:08:26;100646.28;;;29.79;51.32
18500;BME280;9379;52.134;11.576;2023-05-22T13:10:53;100624.53;;;29.67;49.70
18500;BME280;9379;52.134;11.576;2023-05-22T13:13:20;100627.00;;;30.01;48.64
18500;BME280;9379;52.134;11.576;2023-05-22T13:15:46;100631.38;;;30.39;49.98
18500;BME280;9379;52.134;11.576;2023-05-22T13:18:13;100609.72;;;30.00;49.76
18500;BME280;9379;52.134;11.576;2023-05-22T13:20:40;100614.09;;;30.01;48.43
18500;BME280;9379;52.134;11.576;2023-05-22T13:23:09;100613.41;;;29.79;48.96
18500;BME280;9379;52.134;11.576;2023-05-22T13:25:36;100613.84;;;30.03;48.78
18500;BME280;9379;52.134;11.576;2023-05-22T13:28:03;100604.84;;;29.75;49.11
18500;BME280;9379;52.134;11.576;2023-05-22T13:30:30;100625.44;;;29.78;49.71
18500;BME280;9379;52.134;11.576;2023-05-22T13:32:57;100630.72;;;29.52;50.12
18500;BME280;9379;52.134;11.576;2023-05-22T13:35:24;100610.50;;;29.63;50.09
18500;BME280;9379;52.134;11.576;2023-05-22T13:37:50;100617.25;;;29.51;50.94
18500;BME280;9379;52.134;11.576;2023-05-22T13:40:19;100627.03;;;29.42;51.47
18500;BME280;9379;52.134;11.576;2023-05-22T13:42:46;100626.25;;;29.19;50.51
18500;BME280;9379;52.134;11.576;2023-05-22T13:45:13;100614.41;;;29.41;50.97
18500;BME280;9379;52.134;11.576;2023-05-22T13:47:40;100610.41;;;29.48;52.32
18500;BME280;9379;52.134;11.576;2023-05-22T13:50:07;100615.06;;;29.26;51.44
18500;BME280;9379;52.134;11.576;2023-05-22T13:52:34;100610.28;;;29.11;51.09
18500;BME280;9379;52.134;11.576;2023-05-22T13:55:01;100619.66;;;28.71;51.56
18500;BME280;9379;52.134;11.576;2023-05-22T13:57:29;100602.53;;;29.30;51.89
18500;BME280;9379;52.134;11.576;2023-05-22T13:59:56;100603.56;;;29.24;52.04
18500;BME280;9379;52.134;11.576;2023-05-22T14:02:23;100606.72;;;29.11;51.98
18500;BME280;9379;52.134;11.576;2023-05-22T14:04:50;100598.34;;;29.49;50.33
18500;BME280;9379;52.134;11.576;2023-05-22T14:07:17;100603.06;;;29.54;50.63
18500;BME280;9379;52.134;11.576;2023-05-22T14:09:44;100588.78;;;28.54;51.14
18500;BME280;9379;52.134;11.576;2023-05-22T14:12:11;100597.84;;;28.98;51.80
18500;BME280;9379;52.134;11.576;2023-05-22T14:14:39;100576.31;;;28.85;51.22
18500;BME280;9379;52.134;11.576;2023-05-22T14:17:06;100584.53;;;29.07;51.28
18500;BME280;9379;52.134;11.576;2023-05-22T14:19:34;100560.91;;;29.01;50.92
18500;BME280;9379;52.134;11.576;2023-05-22T14:22:00;100589.44;;;29.37;50.56
18500;BME280;9379;52.134;11.576;2023-05-22T14:24:27;100570.78;;;29.02;50.50
18500;BME280;9379;52.134;11.576;2023-05-22T14:26:54;100574.59;;;29.01;51.16
18500;BME280;9379;52.134;11.576;2023-05-22T14:29:22;100558.88;;;28.69;51.94
18500;BME280;9379;52.134;11.576;2023-05-22T14:31:54;100570.25;;;29.05;51.32
18500;BME280;9379;52.134;11.576;2023-05-22T14:34:26;100574.66;;;28.84;50.49
18500;BME280;9379;52.134;11.576;2023-05-22T14:36:53;100586.06;;;28.98;50.68
18500;BME280;9379;52.134;11.576;2023-05-22T14:39:22;100552.97;;;28.99;50.94
18500;BME280;9379;52.134;11.576;2023-05-22T14:41:50;100569.28;;;28.89;50.42
18500;BME280;9379;52.134;11.576;2023-05-22T14:44:17;100561.75;;;28.80;49.92
18500;BME280;9379;52.134;11.576;2023-05-22T14:46:46;100545.41;;;28.85;50.31
18500;BME280;9379;52.134;11.576;2023-05-22T14:49:15;100549.84;;;28.91;49.66
18500;BME280;9379;52.134;11.576;2023-05-22T14:51:42;100561.47;;;28.81;50.93
18500;BME280;9379;52.134;11.576;2023-05-22T14:54:12;100563.59;;;28.96;50.13
18500;BME280;9379;52.134;11.576;2023-05-22T14:56:39;100534.78;;;28.66;49.85
18500;BME280;9379;52.134;11.576;2023-05-22T14:59:06;100522.50;;;28.69;49.66
18500;BME280;9379;52.134;11.576;2023-05-22T15:01:35;100548.63;;;28.82;50.69
18500;BME280;9379;52.134;11.576;2023-05-22T15:04:02;100523.13;;;28.49;52.38
18500;BME280;9379;52.134;11.576;2023-05-22T15:06:30;100521.28;;;28.33;50.80
18500;BME280;9379;52.134;11.576;2023-05-22T15:08:57;100517.88;;;28.47;51.71
18500;BME280;9379;52.134;11.576;2023-05-22T15:11:24;100528.63;;;28.76;50.46
18500;BME280;9379;52.134;11.576;2023-05-22T15:13:51;100531.78;;;28.68;51.54
18500;BME280;9379;52.134;11.576;2023-05-22T15:16:19;100520.94;;;28.73;50.97
18500;BME280;9379;52.134;11.576;2023-05-22T15:18:46;100510.03;;;28.78;49.95
18500;BME280;9379;52.134;11.576;2023-05-22T15:21:13;100512.50;;;28.80;49.60
18500;BME280;9379;52.134;11.576;2023-05-22T15:23:41;100520.84;;;28.90;49.56
18500;BME280;9379;52.134;11.576;2023-05-22T15:26:08;100522.72;;;28.62;49.85
18500;BME280;9379;52.134;11.576;2023-05-22T15:28:37;100505.78;;;28.65;49.88
18500;BME280;9379;52.134;11.576;2023-05-22T15:31:06;100490.44;;;28.37;50.88
18500;BME280;9379;52.134;11.576;2023-05-22T15:33:33;100521.19;;;28.71;50.40
18500;BME280;9379;52.134;11.576;2023-05-22T15:35:59;100500.72;;;28.79;49.48
18500;BME280;9379;52.134;11.576;2023-05-22T15:38:29;100503.47;;;28.79;48.19
18500;BME280;9379;52.134;11.576;2023-05-22T15:40:58;100486.03;;;28.85;48.63
18500;BME280;9379;52.134;11.576;2023-05-22T15:43:25;100515.56;;;28.83;48.15
18500;BME280;9379;52.134;11.576;2023-05-22T15:45:51;100471.38;;;28.69;48.94
18500;BME280;9379;52.134;11.576;2023-05-22T15:48:18;100504.84;;;29.03;49.15
18500;BME280;9379;52.134;11.576;2023-05-22T15:50:45;100504.94;;;28.87;48.41
18500;BME280;9379;52.134;11.576;2023-05-22T15:53:12;100492.41;;;28.42;47.90
18500;BME280;9379;52.134;11.576;2023-05-22T15:55:39;100508.66;;;28.54;48.41
18500;BME280;9379;52.134;11.576;2023-05-22T15:58:07;100483.34;;;28.63;48.86
18500;BME280;9379;52.134;11.576;2023-05-22T16:00:34;100488.97;;;28.52;48.25
18500;BME280;9379;52.134;11.576;2023-05-22T16:03:05;100496.66;;;28.55;47.84
18500;BME280;9379;52.134;11.576;2023-05-22T16:05:34;100485.81;;;28.65;48.92
18500;BME280;9379;52.134;11.576;2023-05-22T16:08:05;100474.53;;;28.34;49.81
18500;BME280;9379;52.134;11.576;2023-05-22T16:10:34;100452.75;;;28.39;48.77
18500;BME280;9379;52.134;11.576;2023-05-22T16:13:03;100474.91;;;28.43;48.66
18500;BME280;9379;52.134;11.576;2023-05-22T16:15:32;100472.69;;;28.62;48.64
18500;BME280;9379;52.134;11.576;2023-05-22T16:17:59;100483.88;;;28.60;49.58
18500;BME280;9379;52.134;11.576;2023-05-22T16:20:26;100492.75;;;28.72;48.69
18500;BME280;9379;52.134;11.576;2023-05-22T16:22:52;100493.22;;;28.64;48.99
18500;BME280;9379;52.134;11.576;2023-05-22T16:25:19;100472.31;;;28.31;49.34
18500;BME280;9379;52.134;11.576;2023-05-22T16:27:46;100502.53;;;28.41;49.49
18500;BME280;9379;52.134;11.576;2023-05-22T16:30:14;100479.03;;;28.24;48.51
18500;BME280;9379;52.134;11.576;2023-05-22T16:32:44;100494.25;;;28.36;48.56
18500;BME280;9379;52.134;11.576;2023-05-22T16:35:11;100501.78;;;28.07;50.36
18500;BME280;9379;52.134;11.576;2023-05-22T16:37:38;100498.41;;;28.00;48.69
18500;BME280;9379;52.134;11.576;2023-05-22T16:40:06;100491.69;;;28.08;48.30
18500;BME280;9379;52.134;11.576;2023-05-22T16:42:33;100495.69;;;28.22;48.46
18500;BME280;9379;52.134;11.576;2023-05-22T16:45:00;100503.13;;;28.27;48.14
18500;BME280;9379;52.134;11.576;2023-05-22T16:47:27;100485.28;;;28.19;47.89
18500;BME280;9379;52.134;11.576;2023-05-22T16:49:56;100485.22;;;28.14;47.96
18500;BME280;9379;52.134;11.576;2023-05-22T16:52:23;100497.22;;;28.35;48.86
18500;BME280;9379;52.134;11.576;2023-05-22T16:54:51;100469.25;;;28.06;49.67
18500;BME280;9379;52.134;11.576;2023-05-22T16:57:17;100476.13;;;28.08;48.53
18500;BME280;9379;52.134;11.576;2023-05-22T16:59:45;100464.41;;;28.13;48.40
18500;BME280;9379;52.134;11.576;2023-05-22T17:02:11;100480.44;;;28.04;48.77
18500;BME280;9379;52.134;11.576;2023-05-22T17:04:38;100480.88;;;28.18;49.16
18500;BME280;9379;52.134;11.576;2023-05-22T17:07:06;100482.03;;;28.22;48.61
18500;BME280;9379;52.134;11.576;2023-05-22T17:09:33;100480.09;;;28.01;48.87
18500;BME280;9379;52.134;11.576;2023-05-22T17:12:00;100475.66;;;27.95;49.32
18500;BME280;9379;52.134;11.576;2023-05-22T17:14:27;100473.06;;;27.83;49.26
18500;BME280;9379;52.134;11.576;2023-05-22T17:16:54;100488.63;;;27.82;49.93
18500;BME280;9379;52.134;11.576;2023-05-22T17:19:21;100481.03;;;27.89;49.71
18500;BME280;9379;52.134;11.576;2023-05-22T17:21:48;100463.84;;;27.67;50.27
18500;BME280;9379;52.134;11.576;2023-05-22T17:24:16;100480.84;;;27.74;49.64
18500;BME280;9379;52.134;11.576;2023-05-22T17:26:43;100458.00;;;27.63;49.41
18500;BME280;9379;52.134;11.576;2023-05-22T17:29:12;100456.13;;;27.47;49.59
18500;BME280;9379;52.134;11.576;2023-05-22T17:31:39;100449.66;;;27.70;49.77
18500;BME280;9379;52.134;11.576;2023-05-22T17:34:06;100449.03;;;27.46;49.41
18500;BME280;9379;52.134;11.576;2023-05-22T17:36:33;100471.06;;;27.78;49.53
18500;BME280;9379;52.134;11.576;2023-05-22T17:39:00;100459.44;;;27.49;48.90
18500;BME280;9379;52.134;11.576;2023-05-22T17:41:28;100473.91;;;27.67;49.61
18500;BME280;9379;52.134;11.576;2023-05-22T17:43:56;100457.09;;;27.58;49.10
18500;BME280;9379;52.134;11.576;2023-05-22T17:46:25;100476.53;;;27.61;49.79
18500;BME280;9379;52.134;11.576;2023-05-22T17:48:52;100467.69;;;27.54;49.30
18500;BME280;9379;52.134;11.576;2023-05-22T17:51:20;100471.75;;;27.52;49.86
18500;BME280;9379;52.134;11.576;2023-05-22T17:53:47;100455.63;;;27.50;49.67
18500;BME280;9379;52.134;11.576;2023-05-22T17:56:14;100461.66;;;27.52;50.03
18500;BME280;9379;52.134;11.576;2023-05-22T17:58:42;100443.00;;;27.27;50.12
18500;BME280;9379;52.134;11.576;2023-05-22T18:01:09;100446.13;;;27.36;50.02
18500;BME280;9379;52.134;11.576;2023-05-22T18:03:36;100475.41;;;27.41;50.01
18500;BME280;9379;52.134;11.576;2023-05-22T18:06:04;100471.44;;;27.31;50.27
18500;BME280;9379;52.134;11.576;2023-05-22T18:08:30;100463.44;;;27.25;50.11
18500;BME280;9379;52.134;11.576;2023-05-22T18:10:57;100456.31;;;27.24;50.15
18500;BME280;9379;52.134;11.576;2023-05-22T18:13:24;100471.03;;;27.23;50.56
18500;BME280;9379;52.134;11.576;2023-05-22T18:15:52;100477.97;;;27.30;50.26
18500;BME280;9379;52.134;11.576;2023-05-22T18:18:20;100465.00;;;27.21;51.18
18500;BME280;9379;52.134;11.576;2023-05-22T18:20:47;100462.59;;;27.24;50.49
18500;BME280;9379;52.134;11.576;2023-05-22T18:23:14;100447.50;;;26.88;50.14
18500;BME280;9379;52.134;11.576;2023-05-22T18:25:41;100449.56;;;26.81;50.69
18500;BME280;9379;52.134;11.576;2023-05-22T18:28:08;100456.41;;;27.12;50.39
18500;BME280;9379;52.134;11.576;2023-05-22T18:30:35;100466.78;;;26.98;51.06
18500;BME280;9379;52.134;11.576;2023-05-22T18:33:03;100440.88;;;26.84;50.86
18500;BME280;9379;52.134;11.576;2023-05-22T18:35:30;100465.41;;;27.13;50.78
18500;BME280;9379;52.134;11.576;2023-05-22T18:37:57;100457.09;;;26.91;50.93
18500;BME280;9379;52.134;11.576;2023-05-22T18:40:24;100465.84;;;26.76;50.53
18500;BME280;9379;52.134;11.576;2023-05-22T18:42:51;100462.81;;;26.89;50.19
18500;BME280;9379;52.134;11.576;2023-05-22T18:45:18;100461.28;;;26.82;49.76
18500;BME280;9379;52.134;11.576;2023-05-22T18:47:45;100468.25;;;26.89;49.56
18500;BME280;9379;52.134;11.576;2023-05-22T18:50:13;100475.25;;;26.68;49.64
18500;BME280;9379;52.134;11.576;2023-05-22T18:52:40;100475.75;;;26.82;49.48
18500;BME280;9379;52.134;11.576;2023-05-22T18:55:08;100468.31;;;26.78;49.31
18500;BME280;9379;52.134;11.576;2023-05-22T18:57:35;100482.22;;;26.93;49.43
18500;BME280;9379;52.134;11.576;2023-05-22T19:00:04;100481.50;;;26.69;49.14
18500;BME280;9379;52.134;11.576;2023-05-22T19:02:32;100480.66;;;26.52;48.56
18500;BME280;9379;52.134;11.576;2023-05-22T19:04:59;100482.53;;;26.51;48.52
18500;BME280;9379;52.134;11.576;2023-05-22T19:07:28;100485.44;;;26.61;48.40
18500;BME280;9379;52.134;11.576;2023-05-22T19:09:55;100476.19;;;26.62;48.58
18500;BME280;9379;52.134;11.576;2023-05-22T19:12:22;100476.75;;;26.48;48.52
18500;BME280;9379;52.134;11.576;2023-05-22T19:14:49;100481.69;;;26.51;48.86
18500;BME280;9379;52.134;11.576;2023-05-22T19:17:16;100482.06;;;26.54;48.38
18500;BME280;9379;52.134;11.576;2023-05-22T19:19:43;100492.84;;;26.49;48.89
18500;BME280;9379;52.134;11.576;2023-05-22T19:22:11;100489.34;;;26.37;48.17
18500;BME280;9379;52.134;11.576;2023-05-22T19:24:39;100486.28;;;26.22;48.43
18500;BME280;9379;52.134;11.576;2023-05-22T19:27:06;100498.00;;;26.22;48.33
18500;BME280;9379;52.134;11.576;2023-05-22T19:29:33;100500.50;;;26.12;47.91
18500;BME280;9379;52.134;11.576;2023-05-22T19:32:02;100500.75;;;26.10;47.66
18500;BME280;9379;52.134;11.576;2023-05-22T19:34:29;100507.28;;;25.98;47.99
18500;BME280;9379;52.134;11.576;2023-05-22T19:36:56;100512.47;;;26.11;48.00
18500;BME280;9379;52.134;11.576;2023-05-22T19:39:23;100501.97;;;25.91;48.04
18500;BME280;9379;52.134;11.576;2023-05-22T19:41:52;100515.56;;;25.91;47.36
18500;BME280;9379;52.134;11.576;2023-05-22T19:44:19;100520.69;;;25.87;47.58
18500;BME280;9379;52.134;11.576;2023-05-22T19:46:46;100530.75;;;25.87;47.42
18500;BME280;9379;52.134;11.576;2023-05-22T19:49:14;100535.72;;;25.90;47.78
18500;BME280;9379;52.134;11.576;2023-05-22T19:51:41;100517.63;;;25.84;48.26
18500;BME280;9379;52.134;11.576;2023-05-22T19:54:08;100531.00;;;25.85;48.86
18500;BME280;9379;52.134;11.576;2023-05-22T19:56:35;100536.09;;;25.70;49.22
18500;BME280;9379;52.134;11.576;2023-05-22T19:59:03;100525.28;;;25.64;48.01
18500;BME280;9379;52.134;11.576;2023-05-22T20:01:30;100530.75;;;25.87;46.99
18500;BME280;9379;52.134;11.576;2023-05-22T20:03:57;100539.59;;;25.59;49.43
18500;BME280;9379;52.134;11.576;2023-05-22T20:06:25;100533.91;;;25.60;48.60
18500;BME280;9379;52.134;11.576;2023-05-22T20:08:55;100535.06;;;25.41;48.05
18500;BME280;9379;52.134;11.576;2023-05-22T20:11:22;100522.88;;;25.44;47.79
18500;BME280;9379;52.134;11.576;2023-05-22T20:13:49;100511.06;;;25.62;48.73
18500;BME280;9379;52.134;11.576;2023-05-22T20:16:21;100515.00;;;25.77;47.41
18500;BME280;9379;52.134;11.576;2023-05-22T20:18:48;100532.75;;;25.80;47.76
18500;BME280;9379;52.134;11.576;2023-05-22T20:21:16;100523.41;;;25.87;47.14
18500;BME280;9379;52.134;11.576;2023-05-22T20:23:43;100522.94;;;25.79;47.36
18500;BME280;9379;52.134;11.576;2023-05-22T20:26:10;100528.03;;;25.75;47.73
18500;BME280;9379;52.134;11.576;2023-05-22T20:28:37;100539.25;;;25.79;47.38
18500;BME280;9379;52.134;11.576;2023-05-22T20:31:04;100520.44;;;25.77;47.53
18500;BME280;9379;52.134;11.576;2023-05-22T20:33:33;100525.78;;;25.84;47.96
18500;BME280;9379;52.134;11.576;2023-05-22T20:35:59;100534.31;;;25.76;47.81
18500;BME280;9379;52.134;11.576;2023-05-22T20:38:26;100519.22;;;25.26;48.98
18500;BME280;9379;52.134;11.576;2023-05-22T20:40:54;100522.16;;;24.95;49.71
18500;BME280;9379;52.134;11.576;2023-05-22T20:43:22;100543.44;;;25.28;49.17
18500;BME280;9379;52.134;11.576;2023-05-22T20:45:50;100536.81;;;25.12;49.32
18500;BME280;9379;52.134;11.576;2023-05-22T20:48:18;100541.38;;;25.12;48.87
18500;BME280;9379;52.134;11.576;2023-05-22T20:50:47;100529.13;;;25.21;48.83
18500;BME280;9379;52.134;11.576;2023-05-22T20:53:15;100559.16;;;25.14;49.06
18500;BME280;9379;52.134;11.576;2023-05-22T20:55:42;100552.25;;;24.82;50.15
18500;BME280;9379;52.134;11.576;2023-05-22T20:58:09;100559.28;;;24.89;49.62
18500;BME280;9379;52.134;11.576;2023-05-22T21:00:36;100568.00;;;24.61;50.72
18500;BME280;9379;52.134;11.576;2023-05-22T21:03:06;100568.03;;;24.91;51.06
18500;BME280;9379;52.134;11.576;2023-05-22T21:05:33;100592.69;;;25.08;50.78
18500;BME280;9379;52.134;11.576;2023-05-22T21:08:01;100599.81;;;25.09;49.17
18500;BME280;9379;52.134;11.576;2023-05-22T21:10:28;100610.78;;;24.84;49.01
18500;BME280;9379;52.134;11.576;2023-05-22T21:12:55;100624.25;;;24.17;50.70
18500;BME280;9379;52.134;11.576;2023-05-22T21:15:21;100617.22;;;24.35;51.60
18500;BME280;9379;52.134;11.576;2023-05-22T21:17:48;100617.44;;;24.33;53.04
18500;BME280;9379;52.134;11.576;2023-05-22T21:20:15;100625.75;;;24.13;53.54
18500;BME280;9379;52.134;11.576;2023-05-22T21:22:42;100625.81;;;24.50;51.46
18500;BME280;9379;52.134;11.576;2023-05-22T21:25:10;100633.53;;;24.71;51.28
18500;BME280;9379;52.134;11.576;2023-05-22T21:27:38;100624.91;;;24.38;51.59
18500;BME280;9379;52.134;11.576;2023-05-22T21:30:06;100631.19;;;24.57;51.87
18500;BME280;9379;52.134;11.576;2023-05-22T21:32:33;100625.66;;;24.63;50.74
18500;BME280;9379;52.134;11.576;2023-05-22T21:35:00;100635.47;;;24.83;50.73
18500;BME280;9379;52.134;11.576;2023-05-22T21:37:27;100640.78;;;24.59;49.74
18500;BME280;9379;52.134;11.576;2023-05-22T21:39:54;100635.19;;;25.21;49.84
18500;BME280;9379;52.134;11.576;2023-05-22T21:42:22;100640.22;;;25.06;49.34
18500;BME280;9379;52.134;11.576;2023-05-22T21:44:49;100637.66;;;24.74;49.86
18500;BME280;9379;52.134;11.576;2023-05-22T21:47:15;100661.44;;;24.42;53.47
18500;BME280;9379;52.134;11.576;2023-05-22T21:49:42;100662.78;;;24.51;58.83
18500;BME280;9379;52.134;11.576;2023-05-22T21:52:09;100654.19;;;24.36;64.29
18500;BME280;9379;52.134;11.576;2023-05-22T21:54:36;100664.63;;;24.57;65.35
18500;BME280;9379;52.134;11.576;2023-05-22T21:57:03;100643.75;;;24.08;68.51
18500;BME280;9379;52.134;11.576;2023-05-22T21:59:31;100647.41;;;23.95;70.43
18500;BME280;9379;52.134;11.576;2023-05-22T22:01:58;100650.31;;;23.37;71.01
18500;BME280;9379;52.134;11.576;2023-05-22T22:04:25;100656.63;;;22.93;76.57
18500;BME280;9379;52.134;11.576;2023-05-22T22:06:52;100642.47;;;22.84;77.13
18500;BME280;9379;52.134;11.576;2023-05-22T22:09:19;100652.72;;;23.58;73.14
18500;BME280;9379;52.134;11.576;2023-05-22T22:11:46;100651.97;;;23.76;74.87
18500;BME280;9379;52.134;11.576;2023-05-22T22:14:13;100653.13;;;23.55;75.09
18500;BME280;9379;52.134;11.576;2023-05-22T22:16:42;100652.19;;;23.75;72.43
18500;BME280;9379;52.134;11.576;2023-05-22T22:19:09;100642.19;;;23.37;76.14
18500;BME280;9379;52.134;11.576;2023-05-22T22:21:37;100636.56;;;23.70;72.85
18500;BME280;9379;52.134;11.576;2023-05-22T22:24:04;100633.28;;;22.85;78.44
18500;BME280;9379;52.134;11.576;2023-05-22T22:26:31;100626.41;;;23.59;75.24
18500;BME280;9379;52.134;11.576;2023-05-22T22:28:58;100621.84;;;22.83;78.80
18500;BME280;9379;52.134;11.576;2023-05-22T22:31:25;100615.84;;;22.55;79.68
18500;BME280;9379;52.134;11.576;2023-05-22T22:33:53;100599.19;;;22.58;79.33
18500;BME280;9379;52.134;11.576;2023-05-22T22:36:20;100614.28;;;23.30;77.15
18500;BME280;9379;52.134;11.576;2023-05-22T22:38:47;100608.44;;;22.95;78.46
18500;BME280;9379;52.134;11.576;2023-05-22T22:41:14;100600.50;;;23.32;76.37
18500;BME280;9379;52.134;11.576;2023-05-22T22:43:40;100575.69;;;23.60;75.40
18500;BME280;9379;52.134;11.576;2023-05-22T22:46:07;100603.13;;;23.13;75.63
18500;BME280;9379;52.134;11.576;2023-05-22T22:48:34;100603.78;;;23.09;77.64
18500;BME280;9379;52.134;11.576;2023-05-22T22:51:02;100594.97;;;23.13;76.43
18500;BME280;9379;52.134;11.576;2023-05-22T22:53:29;100604.22;;;23.37;76.76
18500;BME280;9379;52.134;11.576;2023-05-22T22:55:56;100599.13;;;23.47;75.52
18500;BME280;9379;52.134;11.576;2023-05-22T22:58:23;100582.66;;;22.73;79.04
18500;BME280;9379;52.134;11.576;2023-05-22T23:00:50;100587.03;;;23.18;77.26
18500;BME280;9379;52.134;11.576;2023-05-22T23:03:17;100603.69;;;23.53;76.21
18500;BME280;9379;52.134;11.576;2023-05-22T23:05:44;100608.06;;;22.78;79.96
18500;BME280;9379;52.134;11.576;2023-05-22T23:08:12;100593.47;;;22.79;78.40
18500;BME280;9379;52.134;11.576;2023-05-22T23:10:39;100596.38;;;22.78;78.20
18500;BME280;9379;52.134;11.576;2023-05-22T23:15:32;100603.91;;;22.76;78.80
18500;BME280;9379;52.134;11.576;2023-05-22T23:17:59;100596.50;;;22.58;80.89
18500;BME280;9379;52.134;11.576;2023-05-22T23:20:26;100574.44;;;22.48;80.73